Terminal Aerodrome Forecast
Issued by NWS Wilmington, OH

Current Version | Previous Version | Text Only | Print | Product List | Glossary Off
Versions: 1 2 3 4 5 6 7 8 9 10 11 12 13 14 15 16 17 18 19 20 21 22 23 24 25 26 27 28 29 30

163
FTUS41 KILN 171734
TAFDAY
TAF
KDAY 171734Z 1718/1818 26012G19KT P6SM OVC015
      TEMPO 1718/1719 SCT015 OVC040
     FM180000 26012G18KT P6SM VCSH OVC012
     FM180400 26010KT P6SM VCSH OVC008
     FM181300 27010KT P6SM OVC012=

USA.gov is the U.S. government's official web portal to all federal, state and local government web resources and services.